sensor_id;sensor_type;location;lat;lon;timestamp;P1;durP1;ratioP1;P2;durP2;ratioP2
19339;SDS011;9804;52.350;6.684;2023-08-06T00:01:24;16.30;;;9.82;;
19339;SDS011;9804;52.350;6.684;2023-08-06T00:03:50;13.85;;;9.85;;
19339;SDS011;9804;52.350;6.684;2023-08-06T00:06:16;12.38;;;9.73;;
19339;SDS011;9804;52.350;6.684;2023-08-06T00:08:41;24.00;;;10.55;;
19339;SDS011;9804;52.350;6.684;2023-08-06T00:11:07;12.93;;;9.65;;
19339;SDS011;9804;52.350;6.684;2023-08-06T00:13:32;15.30;;;9.82;;
19339;SDS011;9804;52.350;6.684;2023-08-06T00:16:10;18.08;;;11.25;;
19339;SDS011;9804;52.350;6.684;2023-08-06T00:18:37;11.93;;;9.68;;
19339;SDS011;9804;52.350;6.684;2023-08-06T00:21:02;14.45;;;10.57;;
19339;SDS011;9804;52.350;6.684;2023-08-06T00:23:27;13.63;;;9.95;;
19339;SDS011;9804;52.350;6.684;2023-08-06T00:25:53;15.73;;;10.75;;
19339;SDS011;9804;52.350;6.684;2023-08-06T00:28:18;14.88;;;10.18;;
19339;SDS011;9804;52.350;6.684;2023-08-06T00:30:44;13.82;;;11.05;;
19339;SDS011;9804;52.350;6.684;2023-08-06T00:33:09;14.35;;;10.75;;
19339;SDS011;9804;52.350;6.684;2023-08-06T00:35:34;19.17;;;10.68;;
19339;SDS011;9804;52.350;6.684;2023-08-06T00:38:00;14.00;;;10.95;;
19339;SDS011;9804;52.350;6.684;2023-08-06T00:40:25;15.57;;;10.65;;
19339;SDS011;9804;52.350;6.684;2023-08-06T00:42:53;17.25;;;11.25;;
19339;SDS011;9804;52.350;6.684;2023-08-06T00:45:18;14.00;;;11.23;;
19339;SDS011;9804;52.350;6.684;2023-08-06T00:47:44;14.63;;;11.05;;
19339;SDS011;9804;52.350;6.684;2023-08-06T00:50:10;16.45;;;10.68;;
19339;SDS011;9804;52.350;6.684;2023-08-06T00:52:36;16.38;;;10.70;;
19339;SDS011;9804;52.350;6.684;2023-08-06T00:55:02;20.90;;;11.13;;
19339;SDS011;9804;52.350;6.684;2023-08-06T00:57:28;15.30;;;10.57;;
19339;SDS011;9804;52.350;6.684;2023-08-06T00:59:54;19.48;;;10.75;;
19339;SDS011;9804;52.350;6.684;2023-08-06T01:02:19;16.40;;;11.18;;
19339;SDS011;9804;52.350;6.684;2023-08-06T01:04:45;13.38;;;10.48;;
19339;SDS011;9804;52.350;6.684;2023-08-06T01:07:19;18.88;;;10.23;;
19339;SDS011;9804;52.350;6.684;2023-08-06T01:09:57;19.55;;;11.73;;
19339;SDS011;9804;52.350;6.684;2023-08-06T01:15:38;13.57;;;11.05;;
19339;SDS011;9804;52.350;6.684;2023-08-06T01:18:09;15.63;;;11.52;;
19339;SDS011;9804;52.350;6.684;2023-08-06T01:20:35;14.90;;;11.38;;
19339;SDS011;9804;52.350;6.684;2023-08-06T01:23:00;16.92;;;11.80;;
19339;SDS011;9804;52.350;6.684;2023-08-06T01:25:28;18.75;;;11.60;;
19339;SDS011;9804;52.350;6.684;2023-08-06T01:27:59;14.07;;;10.55;;
19339;SDS011;9804;52.350;6.684;2023-08-06T01:30:35;16.40;;;12.05;;
19339;SDS011;9804;52.350;6.684;2023-08-06T01:33:05;18.13;;;11.68;;
19339;SDS011;9804;52.350;6.684;2023-08-06T01:35:39;16.20;;;11.85;;
19339;SDS011;9804;52.350;6.684;2023-08-06T01:38:05;14.93;;;11.45;;
19339;SDS011;9804;52.350;6.684;2023-08-06T01:40:31;15.80;;;11.55;;
19339;SDS011;9804;52.350;6.684;2023-08-06T01:42:57;17.20;;;11.50;;
19339;SDS011;9804;52.350;6.684;2023-08-06T01:45:23;15.68;;;11.68;;
19339;SDS011;9804;52.350;6.684;2023-08-06T01:47:48;14.05;;;11.10;;
19339;SDS011;9804;52.350;6.684;2023-08-06T01:50:13;15.20;;;11.38;;
19339;SDS011;9804;52.350;6.684;2023-08-06T01:52:39;14.60;;;11.30;;
19339;SDS011;9804;52.350;6.684;2023-08-06T01:55:04;16.55;;;11.63;;
19339;SDS011;9804;52.350;6.684;2023-08-06T01:57:30;14.63;;;11.45;;
19339;SDS011;9804;52.350;6.684;2023-08-06T01:59:55;15.55;;;11.40;;
19339;SDS011;9804;52.350;6.684;2023-08-06T02:02:20;16.33;;;11.10;;
19339;SDS011;9804;52.350;6.684;2023-08-06T02:04:46;13.20;;;10.57;;
19339;SDS011;9804;52.350;6.684;2023-08-06T02:07:11;16.67;;;11.38;;
19339;SDS011;9804;52.350;6.684;2023-08-06T02:09:36;16.20;;;11.80;;
19339;SDS011;9804;52.350;6.684;2023-08-06T02:12:02;15.98;;;11.25;;
19339;SDS011;9804;52.350;6.684;2023-08-06T02:14:27;15.07;;;11.38;;
19339;SDS011;9804;52.350;6.684;2023-08-06T02:16:53;15.05;;;11.25;;
19339;SDS011;9804;52.350;6.684;2023-08-06T02:19:18;15.82;;;12.25;;
19339;SDS011;9804;52.350;6.684;2023-08-06T02:21:44;14.25;;;11.15;;
19339;SDS011;9804;52.350;6.684;2023-08-06T02:24:09;18.50;;;12.20;;
19339;SDS011;9804;52.350;6.684;2023-08-06T02:26:34;17.35;;;11.52;;
19339;SDS011;9804;52.350;6.684;2023-08-06T02:29:00;15.60;;;11.63;;
19339;SDS011;9804;52.350;6.684;2023-08-06T02:31:25;15.65;;;11.85;;
19339;SDS011;9804;52.350;6.684;2023-08-06T02:33:51;17.00;;;11.38;;
19339;SDS011;9804;52.350;6.684;2023-08-06T02:36:16;16.88;;;12.20;;
19339;SDS011;9804;52.350;6.684;2023-08-06T02:38:42;15.70;;;12.48;;
19339;SDS011;9804;52.350;6.684;2023-08-06T02:41:07;21.05;;;12.85;;
19339;SDS011;9804;52.350;6.684;2023-08-06T02:43:33;20.90;;;13.02;;
19339;SDS011;9804;52.350;6.684;2023-08-06T02:45:58;17.00;;;13.35;;
19339;SDS011;9804;52.350;6.684;2023-08-06T02:48:24;20.05;;;14.07;;
19339;SDS011;9804;52.350;6.684;2023-08-06T02:50:50;17.73;;;14.68;;
19339;SDS011;9804;52.350;6.684;2023-08-06T02:53:15;20.85;;;15.07;;
19339;SDS011;9804;52.350;6.684;2023-08-06T02:55:45;19.02;;;15.15;;
19339;SDS011;9804;52.350;6.684;2023-08-06T02:58:12;21.67;;;15.80;;
19339;SDS011;9804;52.350;6.684;2023-08-06T03:00:38;23.58;;;16.50;;
19339;SDS011;9804;52.350;6.684;2023-08-06T03:03:03;24.80;;;16.13;;
19339;SDS011;9804;52.350;6.684;2023-08-06T03:05:29;23.08;;;17.27;;
19339;SDS011;9804;52.350;6.684;2023-08-06T03:07:54;21.25;;;16.30;;
19339;SDS011;9804;52.350;6.684;2023-08-06T03:10:19;23.58;;;17.02;;
19339;SDS011;9804;52.350;6.684;2023-08-06T03:12:45;23.83;;;16.95;;
19339;SDS011;9804;52.350;6.684;2023-08-06T03:15:10;24.63;;;17.70;;
19339;SDS011;9804;52.350;6.684;2023-08-06T03:17:36;23.13;;;18.05;;
19339;SDS011;9804;52.350;6.684;2023-08-06T03:20:01;26.05;;;17.67;;
19339;SDS011;9804;52.350;6.684;2023-08-06T03:22:26;24.35;;;18.33;;
19339;SDS011;9804;52.350;6.684;2023-08-06T03:24:52;26.38;;;17.60;;
19339;SDS011;9804;52.350;6.684;2023-08-06T03:27:17;23.92;;;17.85;;
19339;SDS011;9804;52.350;6.684;2023-08-06T03:29:43;25.73;;;19.08;;
19339;SDS011;9804;52.350;6.684;2023-08-06T03:32:08;26.30;;;18.67;;
19339;SDS011;9804;52.350;6.684;2023-08-06T03:34:34;24.75;;;18.75;;
19339;SDS011;9804;52.350;6.684;2023-08-06T03:37:00;28.65;;;19.77;;
19339;SDS011;9804;52.350;6.684;2023-08-06T03:39:25;27.38;;;20.20;;
19339;SDS011;9804;52.350;6.684;2023-08-06T03:41:50;29.15;;;19.92;;
19339;SDS011;9804;52.350;6.684;2023-08-06T03:44:16;36.00;;;20.88;;
19339;SDS011;9804;52.350;6.684;2023-08-06T03:46:41;35.78;;;20.40;;
19339;SDS011;9804;52.350;6.684;2023-08-06T03:49:07;28.17;;;20.30;;
19339;SDS011;9804;52.350;6.684;2023-08-06T03:51:32;27.67;;;21.05;;
19339;SDS011;9804;52.350;6.684;2023-08-06T03:53:57;32.88;;;20.80;;
19339;SDS011;9804;52.350;6.684;2023-08-06T03:56:23;26.85;;;20.08;;
19339;SDS011;9804;52.350;6.684;2023-08-06T03:58:48;31.65;;;20.75;;
19339;SDS011;9804;52.350;6.684;2023-08-06T04:01:13;32.47;;;21.00;;
19339;SDS011;9804;52.350;6.684;2023-08-06T04:03:39;29.23;;;20.13;;
19339;SDS011;9804;52.350;6.684;2023-08-06T04:06:04;33.08;;;21.40;;
19339;SDS011;9804;52.350;6.684;2023-08-06T04:08:29;25.35;;;18.25;;
19339;SDS011;9804;52.350;6.684;2023-08-06T04:10:55;31.63;;;20.35;;
19339;SDS011;9804;52.350;6.684;2023-08-06T04:13:20;28.35;;;20.25;;
19339;SDS011;9804;52.350;6.684;2023-08-06T04:15:46;29.33;;;19.98;;
19339;SDS011;9804;52.350;6.684;2023-08-06T04:18:12;27.38;;;19.70;;
19339;SDS011;9804;52.350;6.684;2023-08-06T04:20:46;26.85;;;18.55;;
19339;SDS011;9804;52.350;6.684;2023-08-06T04:23:14;26.70;;;19.55;;
19339;SDS011;9804;52.350;6.684;2023-08-06T04:25:39;29.42;;;20.08;;
19339;SDS011;9804;52.350;6.684;2023-08-06T04:28:05;24.45;;;18.55;;
19339;SDS011;9804;52.350;6.684;2023-08-06T04:30:30;29.83;;;19.48;;
19339;SDS011;9804;52.350;6.684;2023-08-06T04:32:56;24.10;;;19.15;;
19339;SDS011;9804;52.350;6.684;2023-08-06T04:35:23;28.33;;;19.00;;
19339;SDS011;9804;52.350;6.684;2023-08-06T04:37:48;28.83;;;19.50;;
19339;SDS011;9804;52.350;6.684;2023-08-06T04:40:13;25.67;;;19.60;;
19339;SDS011;9804;52.350;6.684;2023-08-06T04:42:39;28.33;;;18.77;;
19339;SDS011;9804;52.350;6.684;2023-08-06T04:45:04;32.55;;;20.13;;
19339;SDS011;9804;52.350;6.684;2023-08-06T04:47:30;29.08;;;19.35;;
19339;SDS011;9804;52.350;6.684;2023-08-06T04:49:56;28.05;;;19.23;;
19339;SDS011;9804;52.350;6.684;2023-08-06T04:52:21;30.15;;;19.52;;
19339;SDS011;9804;52.350;6.684;2023-08-06T04:54:47;31.60;;;18.83;;
19339;SDS011;9804;52.350;6.684;2023-08-06T04:57:12;25.17;;;18.65;;
19339;SDS011;9804;52.350;6.684;2023-08-06T04:59:38;29.63;;;19.10;;
19339;SDS011;9804;52.350;6.684;2023-08-06T05:02:04;24.85;;;18.10;;
19339;SDS011;9804;52.350;6.684;2023-08-06T05:04:29;23.00;;;18.73;;
19339;SDS011;9804;52.350;6.684;2023-08-06T05:06:54;28.90;;;17.30;;
19339;SDS011;9804;52.350;6.684;2023-08-06T05:09:20;21.48;;;17.85;;
19339;SDS011;9804;52.350;6.684;2023-08-06T05:11:46;22.35;;;17.25;;
19339;SDS011;9804;52.350;6.684;2023-08-06T05:14:11;24.60;;;17.35;;
19339;SDS011;9804;52.350;6.684;2023-08-06T05:16:37;21.95;;;17.42;;
19339;SDS011;9804;52.350;6.684;2023-08-06T05:19:02;21.70;;;17.08;;
19339;SDS011;9804;52.350;6.684;2023-08-06T05:21:28;25.10;;;16.27;;
19339;SDS011;9804;52.350;6.684;2023-08-06T05:23:53;22.10;;;17.25;;
19339;SDS011;9804;52.350;6.684;2023-08-06T05:26:19;23.00;;;16.52;;
19339;SDS011;9804;52.350;6.684;2023-08-06T05:28:45;23.15;;;17.48;;
19339;SDS011;9804;52.350;6.684;2023-08-06T05:31:10;23.33;;;17.10;;
19339;SDS011;9804;52.350;6.684;2023-08-06T05:33:36;23.33;;;18.20;;
19339;SDS011;9804;52.350;6.684;2023-08-06T05:36:01;20.23;;;16.58;;
19339;SDS011;9804;52.350;6.684;2023-08-06T05:38:27;21.17;;;16.45;;
19339;SDS011;9804;52.350;6.684;2023-08-06T05:40:52;20.60;;;16.13;;
19339;SDS011;9804;52.350;6.684;2023-08-06T05:43:17;22.77;;;16.30;;
19339;SDS011;9804;52.350;6.684;2023-08-06T05:45:46;22.65;;;17.20;;
19339;SDS011;9804;52.350;6.684;2023-08-06T05:48:14;18.13;;;15.48;;
19339;SDS011;9804;52.350;6.684;2023-08-06T05:50:39;20.02;;;16.00;;
19339;SDS011;9804;52.350;6.684;2023-08-06T05:53:04;20.90;;;16.23;;
19339;SDS011;9804;52.350;6.684;2023-08-06T05:55:30;24.55;;;17.55;;
19339;SDS011;9804;52.350;6.684;2023-08-06T05:57:57;23.50;;;16.70;;
19339;SDS011;9804;52.350;6.684;2023-08-06T06:00:22;21.75;;;17.98;;
19339;SDS011;9804;52.350;6.684;2023-08-06T06:02:48;29.27;;;20.38;;
19339;SDS011;9804;52.350;6.684;2023-08-06T06:05:13;22.45;;;17.02;;
19339;SDS011;9804;52.350;6.684;2023-08-06T06:07:38;25.30;;;17.40;;
19339;SDS011;9804;52.350;6.684;2023-08-06T06:10:04;20.27;;;15.40;;
19339;SDS011;9804;52.350;6.684;2023-08-06T06:12:30;25.35;;;17.17;;
19339;SDS011;9804;52.350;6.684;2023-08-06T06:14:55;20.45;;;16.73;;
19339;SDS011;9804;52.350;6.684;2023-08-06T06:17:21;19.30;;;15.93;;
19339;SDS011;9804;52.350;6.684;2023-08-06T06:19:46;21.17;;;17.17;;
19339;SDS011;9804;52.350;6.684;2023-08-06T06:22:12;19.08;;;16.58;;
19339;SDS011;9804;52.350;6.684;2023-08-06T06:24:37;21.52;;;16.58;;
19339;SDS011;9804;52.350;6.684;2023-08-06T06:27:03;19.30;;;16.27;;
19339;SDS011;9804;52.350;6.684;2023-08-06T06:29:28;18.15;;;15.55;;
19339;SDS011;9804;52.350;6.684;2023-08-06T06:31:54;18.77;;;14.32;;
19339;SDS011;9804;52.350;6.684;2023-08-06T06:34:19;16.38;;;13.55;;
19339;SDS011;9804;52.350;6.684;2023-08-06T06:36:45;16.35;;;13.73;;
19339;SDS011;9804;52.350;6.684;2023-08-06T06:39:10;15.80;;;13.80;;
19339;SDS011;9804;52.350;6.684;2023-08-06T06:41:35;16.17;;;13.27;;
19339;SDS011;9804;52.350;6.684;2023-08-06T06:44:01;17.17;;;14.52;;
19339;SDS011;9804;52.350;6.684;2023-08-06T06:46:26;15.00;;;13.40;;
19339;SDS011;9804;52.350;6.684;2023-08-06T06:48:51;22.90;;;13.90;;
19339;SDS011;9804;52.350;6.684;2023-08-06T06:51:17;15.20;;;12.40;;
19339;SDS011;9804;52.350;6.684;2023-08-06T06:53:42;14.93;;;12.32;;
19339;SDS011;9804;52.350;6.684;2023-08-06T06:56:07;17.38;;;11.98;;
19339;SDS011;9804;52.350;6.684;2023-08-06T06:58:33;15.20;;;12.70;;
19339;SDS011;9804;52.350;6.684;2023-08-06T07:00:58;15.65;;;13.23;;
19339;SDS011;9804;52.350;6.684;2023-08-06T07:03:24;13.30;;;11.90;;
19339;SDS011;9804;52.350;6.684;2023-08-06T07:05:49;14.38;;;12.32;;
19339;SDS011;9804;52.350;6.684;2023-08-06T07:08:15;16.60;;;12.27;;
19339;SDS011;9804;52.350;6.684;2023-08-06T07:10:41;16.40;;;12.60;;
19339;SDS011;9804;52.350;6.684;2023-08-06T07:13:07;15.35;;;12.80;;
19339;SDS011;9804;52.350;6.684;2023-08-06T07:15:32;16.17;;;13.02;;
19339;SDS011;9804;52.350;6.684;2023-08-06T07:17:58;15.45;;;13.40;;
19339;SDS011;9804;52.350;6.684;2023-08-06T07:20:23;17.75;;;13.10;;
19339;SDS011;9804;52.350;6.684;2023-08-06T07:22:49;16.45;;;13.05;;
19339;SDS011;9804;52.350;6.684;2023-08-06T07:25:15;14.95;;;12.80;;
19339;SDS011;9804;52.350;6.684;2023-08-06T07:27:41;17.92;;;13.77;;
19339;SDS011;9804;52.350;6.684;2023-08-06T07:30:06;14.35;;;12.85;;
19339;SDS011;9804;52.350;6.684;2023-08-06T07:32:32;14.95;;;13.23;;
19339;SDS011;9804;52.350;6.684;2023-08-06T07:34:57;14.90;;;13.27;;
19339;SDS011;9804;52.350;6.684;2023-08-06T07:37:25;16.20;;;13.15;;
19339;SDS011;9804;52.350;6.684;2023-08-06T07:39:54;15.48;;;12.40;;
19339;SDS011;9804;52.350;6.684;2023-08-06T07:42:20;14.68;;;12.75;;
19339;SDS011;9804;52.350;6.684;2023-08-06T07:44:53;15.38;;;11.90;;
19339;SDS011;9804;52.350;6.684;2023-08-06T07:47:20;15.07;;;11.45;;
19339;SDS011;9804;52.350;6.684;2023-08-06T07:49:45;14.18;;;12.35;;
19339;SDS011;9804;52.350;6.684;2023-08-06T07:52:11;17.30;;;12.05;;
19339;SDS011;9804;52.350;6.684;2023-08-06T07:54:36;13.73;;;11.55;;
19339;SDS011;9804;52.350;6.684;2023-08-06T07:57:02;13.75;;;11.18;;
19339;SDS011;9804;52.350;6.684;2023-08-06T07:59:27;13.85;;;11.18;;
19339;SDS011;9804;52.350;6.684;2023-08-06T08:01:52;13.45;;;10.70;;
19339;SDS011;9804;52.350;6.684;2023-08-06T08:04:18;12.00;;;9.88;;
19339;SDS011;9804;52.350;6.684;2023-08-06T08:06:43;12.25;;;9.93;;
19339;SDS011;9804;52.350;6.684;2023-08-06T08:09:08;15.50;;;9.70;;
19339;SDS011;9804;52.350;6.684;2023-08-06T08:11:34;13.93;;;10.23;;
19339;SDS011;9804;52.350;6.684;2023-08-06T08:13:59;15.70;;;10.90;;
19339;SDS011;9804;52.350;6.684;2023-08-06T08:16:25;15.93;;;10.35;;
19339;SDS011;9804;52.350;6.684;2023-08-06T08:18:50;12.25;;;10.32;;
19339;SDS011;9804;52.350;6.684;2023-08-06T08:21:15;13.82;;;10.80;;
19339;SDS011;9804;52.350;6.684;2023-08-06T08:23:41;11.63;;;10.43;;
19339;SDS011;9804;52.350;6.684;2023-08-06T08:26:07;12.18;;;10.82;;
19339;SDS011;9804;52.350;6.684;2023-08-06T08:28:33;11.00;;;9.90;;
19339;SDS011;9804;52.350;6.684;2023-08-06T08:30:58;11.43;;;10.05;;
19339;SDS011;9804;52.350;6.684;2023-08-06T08:33:23;11.40;;;9.88;;
19339;SDS011;9804;52.350;6.684;2023-08-06T08:35:49;11.00;;;9.23;;
19339;SDS011;9804;52.350;6.684;2023-08-06T08:38:14;14.93;;;9.50;;
19339;SDS011;9804;52.350;6.684;2023-08-06T08:40:41;13.50;;;9.10;;
19339;SDS011;9804;52.350;6.684;2023-08-06T08:43:11;11.65;;;8.93;;
19339;SDS011;9804;52.350;6.684;2023-08-06T08:45:39;9.32;;;8.43;;
19339;SDS011;9804;52.350;6.684;2023-08-06T08:48:05;10.27;;;8.30;;
19339;SDS011;9804;52.350;6.684;2023-08-06T08:50:31;9.85;;;8.20;;
19339;SDS011;9804;52.350;6.684;2023-08-06T08:52:57;12.00;;;8.35;;
19339;SDS011;9804;52.350;6.684;2023-08-06T08:55:22;10.93;;;7.85;;
19339;SDS011;9804;52.350;6.684;2023-08-06T08:57:48;10.50;;;7.53;;
19339;SDS011;9804;52.350;6.684;2023-08-06T09:00:13;9.38;;;8.35;;
19339;SDS011;9804;52.350;6.684;2023-08-06T09:02:39;9.15;;;8.07;;
19339;SDS011;9804;52.350;6.684;2023-08-06T09:05:06;11.35;;;8.68;;
19339;SDS011;9804;52.350;6.684;2023-08-06T09:07:35;9.85;;;8.20;;
19339;SDS011;9804;52.350;6.684;2023-08-06T09:10:03;10.90;;;9.32;;
19339;SDS011;9804;52.350;6.684;2023-08-06T09:12:31;10.27;;;8.48;;
19339;SDS011;9804;52.350;6.684;2023-08-06T09:14:57;11.13;;;8.38;;
19339;SDS011;9804;52.350;6.684;2023-08-06T09:17:22;12.48;;;9.23;;
19339;SDS011;9804;52.350;6.684;2023-08-06T09:19:48;10.35;;;9.35;;
19339;SDS011;9804;52.350;6.684;2023-08-06T09:22:14;10.68;;;8.73;;
19339;SDS011;9804;52.350;6.684;2023-08-06T09:24:43;11.32;;;8.05;;
19339;SDS011;9804;52.350;6.684;2023-08-06T09:27:11;11.15;;;8.35;;
19339;SDS011;9804;52.350;6.684;2023-08-06T09:29:42;10.73;;;8.75;;
19339;SDS011;9804;52.350;6.684;2023-08-06T09:32:08;9.82;;;8.45;;
19339;SDS011;9804;52.350;6.684;2023-08-06T09:34:34;9.20;;;7.50;;
19339;SDS011;9804;52.350;6.684;2023-08-06T09:36:59;8.02;;;7.22;;
19339;SDS011;9804;52.350;6.684;2023-08-06T09:39:26;8.25;;;7.53;;
19339;SDS011;9804;52.350;6.684;2023-08-06T09:41:59;9.65;;;8.00;;
19339;SDS011;9804;52.350;6.684;2023-08-06T09:44:26;8.77;;;6.88;;
19339;SDS011;9804;52.350;6.684;2023-08-06T09:46:53;11.10;;;7.78;;
19339;SDS011;9804;52.350;6.684;2023-08-06T09:49:42;8.20;;;7.40;;
19339;SDS011;9804;52.350;6.684;2023-08-06T09:52:11;11.55;;;7.80;;
19339;SDS011;9804;52.350;6.684;2023-08-06T09:54:38;7.88;;;7.07;;
19339;SDS011;9804;52.350;6.684;2023-08-06T09:57:03;8.80;;;7.90;;
19339;SDS011;9804;52.350;6.684;2023-08-06T09:59:30;7.85;;;6.78;;
19339;SDS011;9804;52.350;6.684;2023-08-06T10:01:57;7.78;;;6.47;;
19339;SDS011;9804;52.350;6.684;2023-08-06T10:04:23;8.10;;;6.50;;
19339;SDS011;9804;52.350;6.684;2023-08-06T10:06:48;7.47;;;5.82;;
19339;SDS011;9804;52.350;6.684;2023-08-06T10:09:14;9.13;;;5.80;;
19339;SDS011;9804;52.350;6.684;2023-08-06T10:11:40;10.43;;;7.25;;
19339;SDS011;9804;52.350;6.684;2023-08-06T10:14:11;7.30;;;6.47;;
19339;SDS011;9804;52.350;6.684;2023-08-06T10:16:41;6.70;;;6.05;;
19339;SDS011;9804;52.350;6.684;2023-08-06T10:19:07;8.20;;;5.97;;
19339;SDS011;9804;52.350;6.684;2023-08-06T10:21:35;6.32;;;5.60;;
19339;SDS011;9804;52.350;6.684;2023-08-06T10:24:00;9.13;;;7.63;;
19339;SDS011;9804;52.350;6.684;2023-08-06T10:26:29;8.10;;;7.30;;
19339;SDS011;9804;52.350;6.684;2023-08-06T10:28:54;10.30;;;8.32;;
19339;SDS011;9804;52.350;6.684;2023-08-06T10:31:24;8.27;;;7.47;;
19339;SDS011;9804;52.350;6.684;2023-08-06T10:34:18;7.03;;;6.32;;
19339;SDS011;9804;52.350;6.684;2023-08-06T10:36:44;8.57;;;6.68;;
19339;SDS011;9804;52.350;6.684;2023-08-06T10:39:12;7.00;;;6.32;;
19339;SDS011;9804;52.350;6.684;2023-08-06T10:41:38;6.65;;;5.05;;
19339;SDS011;9804;52.350;6.684;2023-08-06T10:44:07;5.20;;;4.70;;
19339;SDS011;9804;52.350;6.684;2023-08-06T10:46:34;5.53;;;4.18;;
19339;SDS011;9804;52.350;6.684;2023-08-06T10:49:00;4.55;;;2.67;;
19339;SDS011;9804;52.350;6.684;2023-08-06T10:51:26;4.85;;;3.45;;
19339;SDS011;9804;52.350;6.684;2023-08-06T10:53:52;5.88;;;4.47;;
19339;SDS011;9804;52.350;6.684;2023-08-06T10:56:19;6.53;;;2.95;;
19339;SDS011;9804;52.350;6.684;2023-08-06T10:58:47;4.63;;;3.50;;
19339;SDS011;9804;52.350;6.684;2023-08-06T11:01:13;4.68;;;4.28;;
19339;SDS011;9804;52.350;6.684;2023-08-06T11:03:40;3.60;;;3.10;;
19339;SDS011;9804;52.350;6.684;2023-08-06T11:06:10;6.68;;;3.00;;
19339;SDS011;9804;52.350;6.684;2023-08-06T11:08:36;6.97;;;3.58;;
19339;SDS011;9804;52.350;6.684;2023-08-06T11:11:13;5.60;;;3.50;;
19339;SDS011;9804;52.350;6.684;2023-08-06T11:13:40;2.75;;;2.53;;
19339;SDS011;9804;52.350;6.684;2023-08-06T11:16:06;3.85;;;3.55;;
19339;SDS011;9804;52.350;6.684;2023-08-06T11:18:34;7.40;;;5.80;;
19339;SDS011;9804;52.350;6.684;2023-08-06T11:21:00;5.65;;;5.15;;
19339;SDS011;9804;52.350;6.684;2023-08-06T11:23:27;5.20;;;4.80;;
19339;SDS011;9804;52.350;6.684;2023-08-06T11:25:54;5.97;;;5.40;;
19339;SDS011;9804;52.350;6.684;2023-08-06T11:28:20;7.60;;;6.90;;
19339;SDS011;9804;52.350;6.684;2023-08-06T11:30:48;7.80;;;7.10;;
19339;SDS011;9804;52.350;6.684;2023-08-06T11:33:14;8.70;;;7.80;;
19339;SDS011;9804;52.350;6.684;2023-08-06T11:35:45;6.47;;;5.88;;
19339;SDS011;9804;52.350;6.684;2023-08-06T11:38:11;10.75;;;7.97;;
19339;SDS011;9804;52.350;6.684;2023-08-06T11:40:38;8.00;;;6.60;;
19339;SDS011;9804;52.350;6.684;2023-08-06T11:43:05;7.63;;;6.80;;
19339;SDS011;9804;52.350;6.684;2023-08-06T11:45:30;8.43;;;6.57;;
19339;SDS011;9804;52.350;6.684;2023-08-06T11:47:56;7.07;;;6.47;;
19339;SDS011;9804;52.350;6.684;2023-08-06T11:50:30;9.07;;;7.30;;
19339;SDS011;9804;52.350;6.684;2023-08-06T11:52:56;7.55;;;6.28;;
19339;SDS011;9804;52.350;6.684;2023-08-06T11:55:23;8.70;;;6.35;;
19339;SDS011;9804;52.350;6.684;2023-08-06T11:57:50;7.80;;;7.00;;
19339;SDS011;9804;52.350;6.684;2023-08-06T12:00:15;8.93;;;7.97;;
19339;SDS011;9804;52.350;6.684;2023-08-06T12:02:47;8.05;;;6.88;;
19339;SDS011;9804;52.350;6.684;2023-08-06T12:05:18;6.90;;;6.20;;
19339;SDS011;9804;52.350;6.684;2023-08-06T12:07:55;6.78;;;6.10;;
19339;SDS011;9804;52.350;6.684;2023-08-06T12:10:22;6.65;;;5.40;;
19339;SDS011;9804;52.350;6.684;2023-08-06T12:12:50;6.40;;;5.20;;
19339;SDS011;9804;52.350;6.684;2023-08-06T12:15:15;6.70;;;5.97;;
19339;SDS011;9804;52.350;6.684;2023-08-06T12:17:41;6.43;;;5.82;;
19339;SDS011;9804;52.350;6.684;2023-08-06T12:20:07;7.30;;;5.20;;
19339;SDS011;9804;52.350;6.684;2023-08-06T12:22:34;4.82;;;4.38;;
19339;SDS011;9804;52.350;6.684;2023-08-06T12:25:03;6.28;;;4.50;;
19339;SDS011;9804;52.350;6.684;2023-08-06T12:27:36;5.80;;;4.85;;
19339;SDS011;9804;52.350;6.684;2023-08-06T12:30:03;6.07;;;5.47;;
19339;SDS011;9804;52.350;6.684;2023-08-06T12:32:29;7.18;;;5.82;;
19339;SDS011;9804;52.350;6.684;2023-08-06T12:34:55;5.55;;;4.78;;
19339;SDS011;9804;52.350;6.684;2023-08-06T12:37:20;7.22;;;5.05;;
19339;SDS011;9804;52.350;6.684;2023-08-06T12:39:46;5.63;;;4.35;;
19339;SDS011;9804;52.350;6.684;2023-08-06T12:42:11;5.60;;;4.65;;
19339;SDS011;9804;52.350;6.684;2023-08-06T12:44:37;4.88;;;4.47;;
19339;SDS011;9804;52.350;6.684;2023-08-06T12:47:02;5.50;;;4.35;;
19339;SDS011;9804;52.350;6.684;2023-08-06T12:49:28;7.90;;;4.28;;
19339;SDS011;9804;52.350;6.684;2023-08-06T12:51:54;5.13;;;4.63;;
19339;SDS011;9804;52.350;6.684;2023-08-06T12:54:19;5.10;;;4.38;;
19339;SDS011;9804;52.350;6.684;2023-08-06T12:56:46;5.72;;;4.20;;
19339;SDS011;9804;52.350;6.684;2023-08-06T12:59:13;5.00;;;3.88;;
19339;SDS011;9804;52.350;6.684;2023-08-06T13:01:39;4.28;;;3.47;;
19339;SDS011;9804;52.350;6.684;2023-08-06T13:04:05;4.45;;;3.10;;
19339;SDS011;9804;52.350;6.684;2023-08-06T13:06:30;4.75;;;4.20;;
19339;SDS011;9804;52.350;6.684;2023-08-06T13:09:00;3.83;;;3.50;;
19339;SDS011;9804;52.350;6.684;2023-08-06T13:11:26;5.07;;;3.05;;
19339;SDS011;9804;52.350;6.684;2023-08-06T13:13:52;3.10;;;2.80;;
19339;SDS011;9804;52.350;6.684;2023-08-06T13:16:17;3.47;;;3.08;;
19339;SDS011;9804;52.350;6.684;2023-08-06T13:18:42;3.60;;;3.30;;
19339;SDS011;9804;52.350;6.684;2023-08-06T13:21:08;5.03;;;3.30;;
19339;SDS011;9804;52.350;6.684;2023-08-06T13:23:33;4.20;;;3.42;;
19339;SDS011;9804;52.350;6.684;2023-08-06T13:25:58;4.32;;;3.08;;
19339;SDS011;9804;52.350;6.684;2023-08-06T13:28:24;3.67;;;3.38;;
19339;SDS011;9804;52.350;6.684;2023-08-06T13:30:49;4.50;;;3.30;;
19339;SDS011;9804;52.350;6.684;2023-08-06T13:33:15;3.53;;;3.22;;
19339;SDS011;9804;52.350;6.684;2023-08-06T13:35:40;5.82;;;3.38;;
19339;SDS011;9804;52.350;6.684;2023-08-06T13:38:06;4.03;;;3.25;;
19339;SDS011;9804;52.350;6.684;2023-08-06T13:40:32;3.65;;;2.88;;
19339;SDS011;9804;52.350;6.684;2023-08-06T13:42:58;3.95;;;3.00;;
19339;SDS011;9804;52.350;6.684;2023-08-06T13:45:24;2.97;;;2.70;;
19339;SDS011;9804;52.350;6.684;2023-08-06T13:47:50;2.80;;;2.60;;
19339;SDS011;9804;52.350;6.684;2023-08-06T13:50:15;5.53;;;2.85;;
19339;SDS011;9804;52.350;6.684;2023-08-06T13:52:41;3.10;;;2.80;;
19339;SDS011;9804;52.350;6.684;2023-08-06T13:55:06;4.22;;;2.88;;
19339;SDS011;9804;52.350;6.684;2023-08-06T13:57:32;3.65;;;2.83;;
19339;SDS011;9804;52.350;6.684;2023-08-06T13:59:59;2.88;;;2.53;;
19339;SDS011;9804;52.350;6.684;2023-08-06T14:02:24;3.03;;;2.38;;
19339;SDS011;9804;52.350;6.684;2023-08-06T14:04:50;3.10;;;2.40;;
19339;SDS011;9804;52.350;6.684;2023-08-06T14:07:16;3.75;;;2.45;;
19339;SDS011;9804;52.350;6.684;2023-08-06T14:09:42;3.83;;;2.72;;
19339;SDS011;9804;52.350;6.684;2023-08-06T14:12:09;3.28;;;2.70;;
19339;SDS011;9804;52.350;6.684;2023-08-06T14:14:34;2.10;;;1.90;;
19339;SDS011;9804;52.350;6.684;2023-08-06T14:17:00;2.38;;;1.70;;
19339;SDS011;9804;52.350;6.684;2023-08-06T14:19:26;4.70;;;1.80;;
19339;SDS011;9804;52.350;6.684;2023-08-06T14:21:51;6.07;;;2.42;;
19339;SDS011;9804;52.350;6.684;2023-08-06T14:24:16;17.27;;;2.88;;
19339;SDS011;9804;52.350;6.684;2023-08-06T14:26:43;11.07;;;2.70;;
19339;SDS011;9804;52.350;6.684;2023-08-06T14:29:09;8.32;;;2.55;;
19339;SDS011;9804;52.350;6.684;2023-08-06T14:31:35;5.45;;;3.10;;
19339;SDS011;9804;52.350;6.684;2023-08-06T14:34:00;6.22;;;3.33;;
19339;SDS011;9804;52.350;6.684;2023-08-06T14:36:26;4.82;;;4.05;;
19339;SDS011;9804;52.350;6.684;2023-08-06T14:38:51;6.20;;;4.40;;
19339;SDS011;9804;52.350;6.684;2023-08-06T14:41:16;5.97;;;4.30;;
19339;SDS011;9804;52.350;6.684;2023-08-06T14:43:42;5.18;;;4.57;;